sensor_id;sensor_type;location;lat;lon;timestamp;P1;durP1;ratioP1;P2;durP2;ratioP2
4214;SDS011;2121;48.062;7.850;2023-07-02T00:02:04;2.47;;;2.37;;
4214;SDS011;2121;48.062;7.850;2023-07-02T00:04:30;3.53;;;3.13;;
4214;SDS011;2121;48.062;7.850;2023-07-02T00:06:56;6.90;;;3.33;;
4214;SDS011;2121;48.062;7.850;2023-07-02T00:09:21;3.60;;;3.30;;
4214;SDS011;2121;48.062;7.850;2023-07-02T00:11:47;3.87;;;3.37;;
4214;SDS011;2121;48.062;7.850;2023-07-02T00:14:13;3.17;;;2.97;;
4214;SDS011;2121;48.062;7.850;2023-07-02T00:16:41;3.20;;;3.00;;
4214;SDS011;2121;48.062;7.850;2023-07-02T00:19:10;2.93;;;2.73;;
4214;SDS011;2121;48.062;7.850;2023-07-02T00:21:40;3.20;;;3.00;;
4214;SDS011;2121;48.062;7.850;2023-07-02T00:24:06;3.73;;;2.80;;
4214;SDS011;2121;48.062;7.850;2023-07-02T00:26:36;2.97;;;2.57;;
4214;SDS011;2121;48.062;7.850;2023-07-02T00:29:03;4.40;;;3.17;;
4214;SDS011;2121;48.062;7.850;2023-07-02T00:31:31;4.10;;;2.93;;
4214;SDS011;2121;48.062;7.850;2023-07-02T00:33:56;4.13;;;3.70;;
4214;SDS011;2121;48.062;7.850;2023-07-02T00:36:22;4.63;;;3.33;;
4214;SDS011;2121;48.062;7.850;2023-07-02T00:38:48;4.70;;;4.30;;
4214;SDS011;2121;48.062;7.850;2023-07-02T00:41:15;3.60;;;3.30;;
4214;SDS011;2121;48.062;7.850;2023-07-02T00:43:41;3.30;;;3.10;;
4214;SDS011;2121;48.062;7.850;2023-07-02T00:46:13;3.47;;;3.17;;
4214;SDS011;2121;48.062;7.850;2023-07-02T00:48:42;3.40;;;3.00;;
4214;SDS011;2121;48.062;7.850;2023-07-02T00:51:11;4.23;;;3.30;;
4214;SDS011;2121;48.062;7.850;2023-07-02T00:53:41;4.80;;;3.50;;
4214;SDS011;2121;48.062;7.850;2023-07-02T00:56:09;5.70;;;3.60;;
4214;SDS011;2121;48.062;7.850;2023-07-02T00:58:37;4.50;;;3.80;;
4214;SDS011;2121;48.062;7.850;2023-07-02T01:01:05;2.93;;;2.80;;
4214;SDS011;2121;48.062;7.850;2023-07-02T01:03:31;5.23;;;3.60;;
4214;SDS011;2121;48.062;7.850;2023-07-02T01:05:58;4.50;;;4.20;;
4214;SDS011;2121;48.062;7.850;2023-07-02T01:08:24;3.03;;;2.83;;
4214;SDS011;2121;48.062;7.850;2023-07-02T01:10:50;6.20;;;3.27;;
4214;SDS011;2121;48.062;7.850;2023-07-02T01:13:17;3.63;;;3.13;;
4214;SDS011;2121;48.062;7.850;2023-07-02T01:15:46;4.30;;;3.50;;
4214;SDS011;2121;48.062;7.850;2023-07-02T01:18:13;4.07;;;3.70;;
4214;SDS011;2121;48.062;7.850;2023-07-02T01:20:40;3.93;;;3.63;;
4214;SDS011;2121;48.062;7.850;2023-07-02T01:23:07;5.20;;;3.20;;
4214;SDS011;2121;48.062;7.850;2023-07-02T01:25:34;3.60;;;3.30;;
4214;SDS011;2121;48.062;7.850;2023-07-02T01:28:01;3.13;;;2.93;;
4214;SDS011;2121;48.062;7.850;2023-07-02T01:30:28;4.67;;;4.00;;
4214;SDS011;2121;48.062;7.850;2023-07-02T01:32:53;4.40;;;4.00;;
4214;SDS011;2121;48.062;7.850;2023-07-02T01:35:19;5.30;;;3.13;;
4214;SDS011;2121;48.062;7.850;2023-07-02T01:37:45;5.73;;;3.40;;
4214;SDS011;2121;48.062;7.850;2023-07-02T01:40:11;3.33;;;3.00;;
4214;SDS011;2121;48.062;7.850;2023-07-02T01:42:37;4.50;;;4.10;;
4214;SDS011;2121;48.062;7.850;2023-07-02T01:45:03;4.40;;;4.00;;
4214;SDS011;2121;48.062;7.850;2023-07-02T01:47:30;4.00;;;3.70;;
4214;SDS011;2121;48.062;7.850;2023-07-02T01:49:55;3.70;;;3.40;;
4214;SDS011;2121;48.062;7.850;2023-07-02T01:52:21;3.93;;;3.63;;
4214;SDS011;2121;48.062;7.850;2023-07-02T01:54:47;3.80;;;3.50;;
4214;SDS011;2121;48.062;7.850;2023-07-02T01:57:13;5.17;;;3.80;;
4214;SDS011;2121;48.062;7.850;2023-07-02T01:59:38;5.37;;;3.67;;
4214;SDS011;2121;48.062;7.850;2023-07-02T02:02:04;4.80;;;3.57;;
4214;SDS011;2121;48.062;7.850;2023-07-02T02:04:30;4.40;;;3.77;;
4214;SDS011;2121;48.062;7.850;2023-07-02T02:06:55;5.57;;;4.00;;
4214;SDS011;2121;48.062;7.850;2023-07-02T02:09:21;4.97;;;4.30;;
4214;SDS011;2121;48.062;7.850;2023-07-02T02:11:48;8.70;;;4.10;;
4214;SDS011;2121;48.062;7.850;2023-07-02T02:14:15;4.40;;;4.03;;
4214;SDS011;2121;48.062;7.850;2023-07-02T02:16:42;3.80;;;3.50;;
4214;SDS011;2121;48.062;7.850;2023-07-02T02:19:10;5.00;;;3.90;;
4214;SDS011;2121;48.062;7.850;2023-07-02T02:21:37;3.90;;;3.60;;
4214;SDS011;2121;48.062;7.850;2023-07-02T02:24:03;5.00;;;4.20;;
4214;SDS011;2121;48.062;7.850;2023-07-02T02:26:31;4.70;;;3.57;;
4214;SDS011;2121;48.062;7.850;2023-07-02T02:28:56;7.23;;;3.80;;
4214;SDS011;2121;48.062;7.850;2023-07-02T02:31:22;5.10;;;4.60;;
4214;SDS011;2121;48.062;7.850;2023-07-02T02:33:48;8.53;;;4.00;;
4214;SDS011;2121;48.062;7.850;2023-07-02T02:36:13;5.47;;;4.03;;
4214;SDS011;2121;48.062;7.850;2023-07-02T02:38:39;4.73;;;4.33;;
4214;SDS011;2121;48.062;7.850;2023-07-02T02:41:05;8.23;;;4.20;;
4214;SDS011;2121;48.062;7.850;2023-07-02T02:43:33;4.60;;;4.20;;
4214;SDS011;2121;48.062;7.850;2023-07-02T02:45:59;6.10;;;3.70;;
4214;SDS011;2121;48.062;7.850;2023-07-02T02:48:25;5.50;;;4.60;;
4214;SDS011;2121;48.062;7.850;2023-07-02T02:50:50;5.17;;;4.20;;
4214;SDS011;2121;48.062;7.850;2023-07-02T02:53:16;10.33;;;4.40;;
4214;SDS011;2121;48.062;7.850;2023-07-02T02:55:42;8.40;;;4.20;;
4214;SDS011;2121;48.062;7.850;2023-07-02T02:58:08;5.03;;;4.13;;
4214;SDS011;2121;48.062;7.850;2023-07-02T03:00:35;5.57;;;4.47;;
4214;SDS011;2121;48.062;7.850;2023-07-02T03:03:00;5.03;;;3.93;;
4214;SDS011;2121;48.062;7.850;2023-07-02T03:05:28;4.93;;;4.13;;
4214;SDS011;2121;48.062;7.850;2023-07-02T03:07:54;7.47;;;4.57;;
4214;SDS011;2121;48.062;7.850;2023-07-02T03:10:19;5.67;;;4.67;;
4214;SDS011;2121;48.062;7.850;2023-07-02T03:12:46;6.50;;;4.50;;
4214;SDS011;2121;48.062;7.850;2023-07-02T03:15:12;7.47;;;5.10;;
4214;SDS011;2121;48.062;7.850;2023-07-02T03:17:38;5.83;;;4.50;;
4214;SDS011;2121;48.062;7.850;2023-07-02T03:20:04;4.63;;;4.10;;
4214;SDS011;2121;48.062;7.850;2023-07-02T03:22:33;5.30;;;4.83;;
4214;SDS011;2121;48.062;7.850;2023-07-02T03:24:58;12.30;;;5.00;;
4214;SDS011;2121;48.062;7.850;2023-07-02T03:27:25;6.00;;;5.27;;
4214;SDS011;2121;48.062;7.850;2023-07-02T03:29:51;7.07;;;4.30;;
4214;SDS011;2121;48.062;7.850;2023-07-02T03:32:17;10.60;;;4.43;;
4214;SDS011;2121;48.062;7.850;2023-07-02T03:34:43;4.33;;;3.93;;
4214;SDS011;2121;48.062;7.850;2023-07-02T03:37:08;8.10;;;4.00;;
4214;SDS011;2121;48.062;7.850;2023-07-02T03:39:34;6.23;;;4.60;;
4214;SDS011;2121;48.062;7.850;2023-07-02T03:42:00;9.77;;;4.90;;
4214;SDS011;2121;48.062;7.850;2023-07-02T03:44:26;6.47;;;4.67;;
4214;SDS011;2121;48.062;7.850;2023-07-02T03:46:51;6.20;;;4.90;;
4214;SDS011;2121;48.062;7.850;2023-07-02T03:49:17;9.30;;;5.13;;
4214;SDS011;2121;48.062;7.850;2023-07-02T03:51:43;6.50;;;5.00;;
4214;SDS011;2121;48.062;7.850;2023-07-02T03:54:08;10.33;;;4.87;;
4214;SDS011;2121;48.062;7.850;2023-07-02T03:56:34;7.43;;;4.50;;
4214;SDS011;2121;48.062;7.850;2023-07-02T03:59:00;7.93;;;5.23;;
4214;SDS011;2121;48.062;7.850;2023-07-02T04:01:25;9.83;;;5.17;;
4214;SDS011;2121;48.062;7.850;2023-07-02T04:03:52;7.30;;;5.00;;
4214;SDS011;2121;48.062;7.850;2023-07-02T04:06:18;6.77;;;5.23;;
4214;SDS011;2121;48.062;7.850;2023-07-02T04:08:44;21.90;;;6.40;;
4214;SDS011;2121;48.062;7.850;2023-07-02T04:11:11;9.03;;;6.00;;
4214;SDS011;2121;48.062;7.850;2023-07-02T04:13:37;7.40;;;5.50;;
4214;SDS011;2121;48.062;7.850;2023-07-02T04:16:04;8.30;;;5.67;;
4214;SDS011;2121;48.062;7.850;2023-07-02T04:18:30;10.30;;;6.13;;
4214;SDS011;2121;48.062;7.850;2023-07-02T04:20:57;10.70;;;6.87;;
4214;SDS011;2121;48.062;7.850;2023-07-02T04:23:23;11.17;;;7.27;;
4214;SDS011;2121;48.062;7.850;2023-07-02T04:25:50;11.40;;;7.70;;
4214;SDS011;2121;48.062;7.850;2023-07-02T04:28:16;14.50;;;8.37;;
4214;SDS011;2121;48.062;7.850;2023-07-02T04:30:42;19.10;;;8.33;;
4214;SDS011;2121;48.062;7.850;2023-07-02T04:33:08;16.73;;;8.87;;
4214;SDS011;2121;48.062;7.850;2023-07-02T04:35:34;17.73;;;8.87;;
4214;SDS011;2121;48.062;7.850;2023-07-02T04:38:00;12.20;;;9.47;;
4214;SDS011;2121;48.062;7.850;2023-07-02T04:40:26;18.37;;;10.53;;
4214;SDS011;2121;48.062;7.850;2023-07-02T04:42:52;17.17;;;10.13;;
4214;SDS011;2121;48.062;7.850;2023-07-02T04:45:22;20.97;;;10.50;;
4214;SDS011;2121;48.062;7.850;2023-07-02T04:47:50;13.50;;;8.73;;
4214;SDS011;2121;48.062;7.850;2023-07-02T04:50:16;16.20;;;9.77;;
4214;SDS011;2121;48.062;7.850;2023-07-02T04:52:43;18.17;;;9.90;;
4214;SDS011;2121;48.062;7.850;2023-07-02T04:55:09;21.73;;;10.07;;
4214;SDS011;2121;48.062;7.850;2023-07-02T04:57:35;15.00;;;9.77;;
4214;SDS011;2121;48.062;7.850;2023-07-02T05:00:01;19.30;;;11.63;;
4214;SDS011;2121;48.062;7.850;2023-07-02T05:02:33;16.73;;;10.83;;
4214;SDS011;2121;48.062;7.850;2023-07-02T05:04:59;17.73;;;11.33;;
4214;SDS011;2121;48.062;7.850;2023-07-02T05:07:24;22.43;;;12.93;;
4214;SDS011;2121;48.062;7.850;2023-07-02T05:09:50;16.37;;;10.70;;
4214;SDS011;2121;48.062;7.850;2023-07-02T05:12:18;22.83;;;12.10;;
4214;SDS011;2121;48.062;7.850;2023-07-02T05:14:44;24.30;;;13.67;;
4214;SDS011;2121;48.062;7.850;2023-07-02T05:17:10;24.00;;;12.17;;
4214;SDS011;2121;48.062;7.850;2023-07-02T05:19:37;21.50;;;13.17;;
4214;SDS011;2121;48.062;7.850;2023-07-02T05:22:03;24.87;;;12.40;;
4214;SDS011;2121;48.062;7.850;2023-07-02T05:24:28;25.67;;;14.20;;
4214;SDS011;2121;48.062;7.850;2023-07-02T05:26:54;21.20;;;12.97;;
4214;SDS011;2121;48.062;7.850;2023-07-02T05:29:20;19.00;;;12.27;;
4214;SDS011;2121;48.062;7.850;2023-07-02T05:31:45;21.63;;;13.53;;
4214;SDS011;2121;48.062;7.850;2023-07-02T05:34:11;20.63;;;11.90;;
4214;SDS011;2121;48.062;7.850;2023-07-02T05:36:37;20.10;;;12.20;;
4214;SDS011;2121;48.062;7.850;2023-07-02T05:39:03;24.00;;;13.80;;
4214;SDS011;2121;48.062;7.850;2023-07-02T05:41:29;28.43;;;13.97;;
4214;SDS011;2121;48.062;7.850;2023-07-02T05:43:58;21.23;;;13.63;;
4214;SDS011;2121;48.062;7.850;2023-07-02T05:46:25;21.83;;;13.23;;
4214;SDS011;2121;48.062;7.850;2023-07-02T05:48:51;30.57;;;15.10;;
4214;SDS011;2121;48.062;7.850;2023-07-02T05:51:23;24.60;;;14.87;;
4214;SDS011;2121;48.062;7.850;2023-07-02T05:53:49;27.40;;;13.97;;
4214;SDS011;2121;48.062;7.850;2023-07-02T05:56:16;28.53;;;14.43;;
4214;SDS011;2121;48.062;7.850;2023-07-02T05:58:42;26.67;;;16.17;;
4214;SDS011;2121;48.062;7.850;2023-07-02T06:01:08;24.97;;;13.90;;
4214;SDS011;2121;48.062;7.850;2023-07-02T06:03:33;35.70;;;14.60;;
4214;SDS011;2121;48.062;7.850;2023-07-02T06:05:59;28.93;;;16.40;;
4214;SDS011;2121;48.062;7.850;2023-07-02T06:08:25;28.23;;;15.30;;
4214;SDS011;2121;48.062;7.850;2023-07-02T06:10:51;21.27;;;14.57;;
4214;SDS011;2121;48.062;7.850;2023-07-02T06:13:17;24.57;;;14.43;;
4214;SDS011;2121;48.062;7.850;2023-07-02T06:15:43;26.70;;;16.90;;
4214;SDS011;2121;48.062;7.850;2023-07-02T06:18:09;21.27;;;14.07;;
4214;SDS011;2121;48.062;7.850;2023-07-02T06:20:34;29.70;;;15.90;;
4214;SDS011;2121;48.062;7.850;2023-07-02T06:23:00;24.80;;;15.57;;
4214;SDS011;2121;48.062;7.850;2023-07-02T06:25:26;31.37;;;17.00;;
4214;SDS011;2121;48.062;7.850;2023-07-02T06:27:52;31.97;;;16.67;;
4214;SDS011;2121;48.062;7.850;2023-07-02T06:30:21;36.00;;;17.57;;
4214;SDS011;2121;48.062;7.850;2023-07-02T06:32:47;30.33;;;16.53;;
4214;SDS011;2121;48.062;7.850;2023-07-02T06:35:13;26.93;;;16.80;;
4214;SDS011;2121;48.062;7.850;2023-07-02T06:37:38;31.60;;;18.00;;
4214;SDS011;2121;48.062;7.850;2023-07-02T06:40:05;35.30;;;17.10;;
4214;SDS011;2121;48.062;7.850;2023-07-02T06:42:31;32.90;;;19.60;;
4214;SDS011;2121;48.062;7.850;2023-07-02T06:44:58;30.33;;;17.80;;
4214;SDS011;2121;48.062;7.850;2023-07-02T06:47:24;35.53;;;17.50;;
4214;SDS011;2121;48.062;7.850;2023-07-02T06:49:51;30.33;;;15.73;;
4214;SDS011;2121;48.062;7.850;2023-07-02T06:52:17;29.40;;;16.97;;
4214;SDS011;2121;48.062;7.850;2023-07-02T06:54:43;33.53;;;16.73;;
4214;SDS011;2121;48.062;7.850;2023-07-02T06:57:09;31.70;;;17.57;;
4214;SDS011;2121;48.062;7.850;2023-07-02T06:59:35;28.07;;;15.83;;
4214;SDS011;2121;48.062;7.850;2023-07-02T07:02:01;26.90;;;16.50;;
4214;SDS011;2121;48.062;7.850;2023-07-02T07:04:28;26.37;;;17.10;;
4214;SDS011;2121;48.062;7.850;2023-07-02T07:06:53;32.37;;;16.23;;
4214;SDS011;2121;48.062;7.850;2023-07-02T07:09:20;31.10;;;17.40;;
4214;SDS011;2121;48.062;7.850;2023-07-02T07:11:47;28.57;;;16.27;;
4214;SDS011;2121;48.062;7.850;2023-07-02T07:14:13;29.27;;;15.97;;
4214;SDS011;2121;48.062;7.850;2023-07-02T07:16:39;30.37;;;17.17;;
4214;SDS011;2121;48.062;7.850;2023-07-02T07:19:05;30.83;;;16.50;;
4214;SDS011;2121;48.062;7.850;2023-07-02T07:21:32;27.73;;;15.80;;
4214;SDS011;2121;48.062;7.850;2023-07-02T07:23:59;34.63;;;17.47;;
4214;SDS011;2121;48.062;7.850;2023-07-02T07:26:25;31.57;;;17.27;;
4214;SDS011;2121;48.062;7.850;2023-07-02T07:28:50;29.00;;;17.97;;
4214;SDS011;2121;48.062;7.850;2023-07-02T07:31:16;27.93;;;17.17;;
4214;SDS011;2121;48.062;7.850;2023-07-02T07:33:42;29.77;;;17.10;;
4214;SDS011;2121;48.062;7.850;2023-07-02T07:36:08;30.33;;;16.73;;
4214;SDS011;2121;48.062;7.850;2023-07-02T07:38:34;32.77;;;18.73;;
4214;SDS011;2121;48.062;7.850;2023-07-02T07:41:00;34.30;;;18.33;;
4214;SDS011;2121;48.062;7.850;2023-07-02T07:43:25;36.97;;;18.60;;
4214;SDS011;2121;48.062;7.850;2023-07-02T07:45:51;35.67;;;19.43;;
4214;SDS011;2121;48.062;7.850;2023-07-02T07:48:17;37.33;;;19.20;;
4214;SDS011;2121;48.062;7.850;2023-07-02T07:50:43;35.33;;;18.13;;
4214;SDS011;2121;48.062;7.850;2023-07-02T07:53:08;35.33;;;19.20;;
4214;SDS011;2121;48.062;7.850;2023-07-02T07:55:34;39.37;;;20.57;;
4214;SDS011;2121;48.062;7.850;2023-07-02T07:58:00;39.10;;;19.23;;
4214;SDS011;2121;48.062;7.850;2023-07-02T08:00:25;41.33;;;20.07;;
4214;SDS011;2121;48.062;7.850;2023-07-02T08:02:52;35.00;;;19.43;;
4214;SDS011;2121;48.062;7.850;2023-07-02T08:05:20;39.90;;;20.83;;
4214;SDS011;2121;48.062;7.850;2023-07-02T08:07:47;34.60;;;18.37;;
4214;SDS011;2121;48.062;7.850;2023-07-02T08:10:13;39.47;;;21.47;;
4214;SDS011;2121;48.062;7.850;2023-07-02T08:12:38;39.50;;;19.20;;
4214;SDS011;2121;48.062;7.850;2023-07-02T08:15:04;38.20;;;22.03;;
4214;SDS011;2121;48.062;7.850;2023-07-02T08:17:31;31.20;;;19.57;;
4214;SDS011;2121;48.062;7.850;2023-07-02T08:19:57;37.40;;;20.67;;
4214;SDS011;2121;48.062;7.850;2023-07-02T08:22:22;30.20;;;20.27;;
4214;SDS011;2121;48.062;7.850;2023-07-02T08:24:48;40.17;;;20.33;;
4214;SDS011;2121;48.062;7.850;2023-07-02T08:27:15;36.77;;;21.10;;
4214;SDS011;2121;48.062;7.850;2023-07-02T08:29:44;36.13;;;19.87;;
4214;SDS011;2121;48.062;7.850;2023-07-02T08:32:13;35.30;;;20.77;;
4214;SDS011;2121;48.062;7.850;2023-07-02T08:34:39;36.30;;;21.23;;
4214;SDS011;2121;48.062;7.850;2023-07-02T08:37:05;37.93;;;21.87;;
4214;SDS011;2121;48.062;7.850;2023-07-02T08:39:30;34.33;;;20.80;;
4214;SDS011;2121;48.062;7.850;2023-07-02T08:41:56;38.00;;;22.17;;
4214;SDS011;2121;48.062;7.850;2023-07-02T08:44:22;35.00;;;19.97;;
4214;SDS011;2121;48.062;7.850;2023-07-02T08:46:49;39.27;;;22.80;;
4214;SDS011;2121;48.062;7.850;2023-07-02T08:49:15;37.63;;;21.10;;
4214;SDS011;2121;48.062;7.850;2023-07-02T08:51:44;39.43;;;21.40;;
4214;SDS011;2121;48.062;7.850;2023-07-02T08:54:11;34.00;;;20.80;;
4214;SDS011;2121;48.062;7.850;2023-07-02T08:56:40;35.40;;;21.10;;
4214;SDS011;2121;48.062;7.850;2023-07-02T08:59:07;41.90;;;20.70;;
4214;SDS011;2121;48.062;7.850;2023-07-02T09:01:44;31.10;;;19.77;;
4214;SDS011;2121;48.062;7.850;2023-07-02T09:04:17;30.20;;;19.33;;
4214;SDS011;2121;48.062;7.850;2023-07-02T09:06:44;37.43;;;20.97;;
4214;SDS011;2121;48.062;7.850;2023-07-02T09:09:12;41.00;;;22.33;;
4214;SDS011;2121;48.062;7.850;2023-07-02T09:11:47;32.97;;;20.30;;
4214;SDS011;2121;48.062;7.850;2023-07-02T09:14:27;43.33;;;21.17;;
4214;SDS011;2121;48.062;7.850;2023-07-02T09:17:02;36.83;;;22.17;;
4214;SDS011;2121;48.062;7.850;2023-07-02T09:19:36;39.30;;;21.10;;
4214;SDS011;2121;48.062;7.850;2023-07-02T09:22:14;34.00;;;20.33;;
4214;SDS011;2121;48.062;7.850;2023-07-02T09:24:40;40.90;;;21.37;;
4214;SDS011;2121;48.062;7.850;2023-07-02T09:27:06;33.10;;;19.83;;
4214;SDS011;2121;48.062;7.850;2023-07-02T09:29:32;34.70;;;20.93;;
4214;SDS011;2121;48.062;7.850;2023-07-02T09:32:00;34.07;;;20.10;;
4214;SDS011;2121;48.062;7.850;2023-07-02T09:34:29;30.23;;;19.87;;
4214;SDS011;2121;48.062;7.850;2023-07-02T09:36:59;35.13;;;19.37;;
4214;SDS011;2121;48.062;7.850;2023-07-02T09:39:27;32.60;;;20.07;;
4214;SDS011;2121;48.062;7.850;2023-07-02T09:41:59;34.03;;;20.00;;
4214;SDS011;2121;48.062;7.850;2023-07-02T09:44:27;31.10;;;19.83;;
4214;SDS011;2121;48.062;7.850;2023-07-02T09:49:27;35.60;;;19.40;;
4214;SDS011;2121;48.062;7.850;2023-07-02T09:52:02;26.73;;;18.47;;
4214;SDS011;2121;48.062;7.850;2023-07-02T09:54:33;33.50;;;18.97;;
4214;SDS011;2121;48.062;7.850;2023-07-02T09:56:59;31.43;;;19.10;;
4214;SDS011;2121;48.062;7.850;2023-07-02T09:59:26;30.30;;;18.70;;
4214;SDS011;2121;48.062;7.850;2023-07-02T10:01:52;31.37;;;18.70;;
4214;SDS011;2121;48.062;7.850;2023-07-02T10:04:19;28.37;;;19.10;;
4214;SDS011;2121;48.062;7.850;2023-07-02T10:06:49;27.97;;;17.50;;
4214;SDS011;2121;48.062;7.850;2023-07-02T10:09:20;29.97;;;19.63;;
4214;SDS011;2121;48.062;7.850;2023-07-02T10:11:59;31.27;;;18.13;;
4214;SDS011;2121;48.062;7.850;2023-07-02T10:14:25;27.47;;;17.00;;
4214;SDS011;2121;48.062;7.850;2023-07-02T10:16:54;34.00;;;20.53;;
4214;SDS011;2121;48.062;7.850;2023-07-02T10:19:21;40.80;;;21.17;;
4214;SDS011;2121;48.062;7.850;2023-07-02T10:21:48;22.70;;;17.20;;
4214;SDS011;2121;48.062;7.850;2023-07-02T10:24:29;44.43;;;19.23;;
4214;SDS011;2121;48.062;7.850;2023-07-02T10:26:56;35.20;;;19.67;;
4214;SDS011;2121;48.062;7.850;2023-07-02T10:29:24;31.17;;;17.77;;
4214;SDS011;2121;48.062;7.850;2023-07-02T10:31:52;27.73;;;17.10;;
4214;SDS011;2121;48.062;7.850;2023-07-02T10:34:33;30.23;;;18.63;;
4214;SDS011;2121;48.062;7.850;2023-07-02T10:37:01;36.20;;;19.57;;
4214;SDS011;2121;48.062;7.850;2023-07-02T10:39:28;30.50;;;18.20;;
4214;SDS011;2121;48.062;7.850;2023-07-02T10:42:04;28.97;;;18.17;;
4214;SDS011;2121;48.062;7.850;2023-07-02T10:44:34;28.27;;;17.90;;
4214;SDS011;2121;48.062;7.850;2023-07-02T10:47:12;31.63;;;18.67;;
4214;SDS011;2121;48.062;7.850;2023-07-02T10:49:38;35.10;;;20.33;;
4214;SDS011;2121;48.062;7.850;2023-07-02T10:52:03;27.17;;;17.73;;
4214;SDS011;2121;48.062;7.850;2023-07-02T10:54:43;29.83;;;18.70;;
4214;SDS011;2121;48.062;7.850;2023-07-02T10:57:13;36.37;;;20.53;;
4214;SDS011;2121;48.062;7.850;2023-07-02T10:59:47;29.20;;;17.57;;
4214;SDS011;2121;48.062;7.850;2023-07-02T11:02:14;35.17;;;19.67;;
4214;SDS011;2121;48.062;7.850;2023-07-02T11:04:40;28.20;;;18.47;;
4214;SDS011;2121;48.062;7.850;2023-07-02T11:07:06;28.17;;;18.07;;
4214;SDS011;2121;48.062;7.850;2023-07-02T11:09:32;28.20;;;18.23;;
4214;SDS011;2121;48.062;7.850;2023-07-02T11:11:59;26.20;;;18.33;;
4214;SDS011;2121;48.062;7.850;2023-07-02T11:14:29;34.43;;;19.07;;
4214;SDS011;2121;48.062;7.850;2023-07-02T11:16:58;24.93;;;17.50;;
4214;SDS011;2121;48.062;7.850;2023-07-02T11:19:28;28.67;;;16.73;;
4214;SDS011;2121;48.062;7.850;2023-07-02T11:21:55;31.70;;;18.67;;
4214;SDS011;2121;48.062;7.850;2023-07-02T11:27:04;33.80;;;17.07;;
4214;SDS011;2121;48.062;7.850;2023-07-02T11:29:31;31.43;;;17.93;;
4214;SDS011;2121;48.062;7.850;2023-07-02T11:32:07;36.00;;;17.47;;
4214;SDS011;2121;48.062;7.850;2023-07-02T11:34:35;24.50;;;17.20;;
4214;SDS011;2121;48.062;7.850;2023-07-02T11:37:02;26.83;;;16.57;;
4214;SDS011;2121;48.062;7.850;2023-07-02T11:39:29;27.47;;;17.10;;
4214;SDS011;2121;48.062;7.850;2023-07-02T11:41:55;28.50;;;17.73;;
4214;SDS011;2121;48.062;7.850;2023-07-02T11:44:21;27.13;;;17.27;;
4214;SDS011;2121;48.062;7.850;2023-07-02T11:46:47;25.43;;;16.83;;
4214;SDS011;2121;48.062;7.850;2023-07-02T11:49:13;26.10;;;16.43;;
4214;SDS011;2121;48.062;7.850;2023-07-02T11:51:40;26.70;;;18.30;;
4214;SDS011;2121;48.062;7.850;2023-07-02T11:54:11;29.13;;;17.67;;
4214;SDS011;2121;48.062;7.850;2023-07-02T11:56:37;21.77;;;14.80;;
4214;SDS011;2121;48.062;7.850;2023-07-02T11:59:03;25.00;;;16.50;;
4214;SDS011;2121;48.062;7.850;2023-07-02T12:01:29;18.85;;;13.88;;
4214;SDS011;2121;48.062;7.850;2023-07-02T12:03:54;23.02;;;15.65;;
4214;SDS011;2121;48.062;7.850;2023-07-02T12:06:20;26.75;;;15.05;;
4214;SDS011;2121;48.062;7.850;2023-07-02T12:08:46;30.30;;;16.95;;
4214;SDS011;2121;48.062;7.850;2023-07-02T12:11:12;23.00;;;14.63;;
4214;SDS011;2121;48.062;7.850;2023-07-02T12:13:37;26.42;;;15.75;;
4214;SDS011;2121;48.062;7.850;2023-07-02T12:16:03;23.30;;;16.05;;
4214;SDS011;2121;48.062;7.850;2023-07-02T12:18:29;21.88;;;15.35;;
4214;SDS011;2121;48.062;7.850;2023-07-02T12:20:55;24.83;;;15.98;;
4214;SDS011;2121;48.062;7.850;2023-07-02T12:23:20;22.45;;;14.27;;
4214;SDS011;2121;48.062;7.850;2023-07-02T12:25:46;18.70;;;14.05;;
4214;SDS011;2121;48.062;7.850;2023-07-02T12:28:12;23.05;;;15.10;;
4214;SDS011;2121;48.062;7.850;2023-07-02T12:30:39;19.63;;;14.93;;
4214;SDS011;2121;48.062;7.850;2023-07-02T12:33:05;26.20;;;14.32;;
4214;SDS011;2121;48.062;7.850;2023-07-02T12:35:31;23.05;;;15.32;;
4214;SDS011;2121;48.062;7.850;2023-07-02T12:37:56;23.90;;;14.48;;
4214;SDS011;2121;48.062;7.850;2023-07-02T12:40:22;24.83;;;15.93;;
4214;SDS011;2121;48.062;7.850;2023-07-02T12:42:48;22.63;;;15.32;;
4214;SDS011;2121;48.062;7.850;2023-07-02T12:45:17;21.23;;;14.25;;
4214;SDS011;2121;48.062;7.850;2023-07-02T12:47:43;20.23;;;14.88;;
4214;SDS011;2121;48.062;7.850;2023-07-02T12:50:09;18.20;;;13.30;;
4214;SDS011;2121;48.062;7.850;2023-07-02T12:52:36;18.88;;;12.70;;
4214;SDS011;2121;48.062;7.850;2023-07-02T12:55:02;21.67;;;14.15;;
4214;SDS011;2121;48.062;7.850;2023-07-02T12:57:29;19.40;;;13.48;;
4214;SDS011;2121;48.062;7.850;2023-07-02T12:59:55;19.02;;;12.68;;
4214;SDS011;2121;48.062;7.850;2023-07-02T13:02:21;17.50;;;12.63;;
4214;SDS011;2121;48.062;7.850;2023-07-02T13:04:49;23.95;;;14.25;;
4214;SDS011;2121;48.062;7.850;2023-07-02T13:07:15;27.65;;;14.43;;
4214;SDS011;2121;48.062;7.850;2023-07-02T13:09:42;19.15;;;13.30;;
4214;SDS011;2121;48.062;7.850;2023-07-02T13:12:09;19.08;;;13.30;;
4214;SDS011;2121;48.062;7.850;2023-07-02T13:14:36;21.35;;;13.00;;
4214;SDS011;2121;48.062;7.850;2023-07-02T13:17:02;20.67;;;13.20;;
4214;SDS011;2121;48.062;7.850;2023-07-02T13:19:30;15.80;;;11.93;;
4214;SDS011;2121;48.062;7.850;2023-07-02T13:21:56;18.73;;;13.50;;
4214;SDS011;2121;48.062;7.850;2023-07-02T13:24:22;23.83;;;14.13;;
4214;SDS011;2121;48.062;7.850;2023-07-02T13:26:48;22.33;;;13.97;;
4214;SDS011;2121;48.062;7.850;2023-07-02T13:29:14;20.63;;;15.10;;
4214;SDS011;2121;48.062;7.850;2023-07-02T13:31:40;20.93;;;13.57;;
4214;SDS011;2121;48.062;7.850;2023-07-02T13:34:05;23.00;;;14.60;;
4214;SDS011;2121;48.062;7.850;2023-07-02T13:36:31;23.93;;;15.70;;
4214;SDS011;2121;48.062;7.850;2023-07-02T13:38:57;21.40;;;15.63;;
4214;SDS011;2121;48.062;7.850;2023-07-02T13:41:23;25.20;;;17.55;;
4214;SDS011;2121;48.062;7.850;2023-07-02T13:43:48;27.83;;;17.73;;
4214;SDS011;2121;48.062;7.850;2023-07-02T13:46:14;24.90;;;17.67;;
4214;SDS011;2121;48.062;7.850;2023-07-02T13:48:40;29.40;;;18.27;;
4214;SDS011;2121;48.062;7.850;2023-07-02T13:51:06;23.60;;;15.52;;
4214;SDS011;2121;48.062;7.850;2023-07-02T13:53:33;24.80;;;16.25;;
4214;SDS011;2121;48.062;7.850;2023-07-02T13:55:59;22.55;;;16.27;;
4214;SDS011;2121;48.062;7.850;2023-07-02T13:58:25;25.80;;;16.83;;
4214;SDS011;2121;48.062;7.850;2023-07-02T14:00:51;28.35;;;16.67;;
4214;SDS011;2121;48.062;7.850;2023-07-02T14:03:16;22.77;;;16.73;;
4214;SDS011;2121;48.062;7.850;2023-07-02T14:05:42;24.05;;;16.20;;
4214;SDS011;2121;48.062;7.850;2023-07-02T14:08:08;22.63;;;15.48;;
4214;SDS011;2121;48.062;7.850;2023-07-02T14:10:34;20.98;;;14.80;;
4214;SDS011;2121;48.062;7.850;2023-07-02T14:13:00;20.55;;;15.10;;
4214;SDS011;2121;48.062;7.850;2023-07-02T14:15:26;25.15;;;14.50;;
4214;SDS011;2121;48.062;7.850;2023-07-02T14:17:52;22.20;;;14.85;;
4214;SDS011;2121;48.062;7.850;2023-07-02T14:20:19;20.85;;;14.70;;
4214;SDS011;2121;48.062;7.850;2023-07-02T14:22:45;20.52;;;15.43;;
4214;SDS011;2121;48.062;7.850;2023-07-02T14:25:11;22.75;;;16.75;;
4214;SDS011;2121;48.062;7.850;2023-07-02T14:27:36;22.83;;;15.50;;
4214;SDS011;2121;48.062;7.850;2023-07-02T14:30:02;19.73;;;14.25;;
4214;SDS011;2121;48.062;7.850;2023-07-02T14:32:32;22.00;;;15.18;;
4214;SDS011;2121;48.062;7.850;2023-07-02T14:35:00;18.23;;;13.18;;
4214;SDS011;2121;48.062;7.850;2023-07-02T14:37:29;20.33;;;13.68;;
4214;SDS011;2121;48.062;7.850;2023-07-02T14:39:55;21.45;;;13.38;;
4214;SDS011;2121;48.062;7.850;2023-07-02T14:42:20;16.35;;;12.77;;
4214;SDS011;2121;48.062;7.850;2023-07-02T14:44:46;20.77;;;13.20;;
4214;SDS011;2121;48.062;7.850;2023-07-02T14:47:12;19.73;;;12.85;;
4214;SDS011;2121;48.062;7.850;2023-07-02T14:49:38;16.50;;;12.85;;
4214;SDS011;2121;48.062;7.850;2023-07-02T14:52:04;18.58;;;13.73;;
4214;SDS011;2121;48.062;7.850;2023-07-02T14:54:30;15.70;;;12.20;;
4214;SDS011;2121;48.062;7.850;2023-07-02T14:56:56;22.67;;;13.65;;
4214;SDS011;2121;48.062;7.850;2023-07-02T14:59:21;18.10;;;12.45;;